PWSweather.com
Personal Weather Stations
Station Observations
SANDHURSTWX
SandhurstGB

SandhurstGB

Lat: 51.3522, Lon: -0.7739

Elevation: 272.3

Station Type: Davis VP2

www.sandhurstweather.org.uk

High Low Average
Temperature 64.2°F17.9°C 43.4°F6.3°C 53.3°F11.8°C
Dew Point 50.0°F10.0°C 41.2°F5.1°C 45.5°F7.5°C
Winds 8.1 mph 13.0 kmh Calm Calm 2.0 mph SW3.2 kmh SW
Wind Gusts 11.5 mph18.5 kmh -- 3.0 mph4.8 kmh
Humidity 93% 54% 76%
Pressure 30.15 in1021.0 mb 30.00 in1015.9 mb -
Precipitation 0.00 in0.0 mm - -
Hour Temp Dew Point Humidity Winds Wind Gusts Pressure Precip Precip Rate Daily Precip Total
12:00 AM 46.4°F8.0°C 42.8°F6.0°C 87% Calm Calm -- 30.15 in1021.0 mb - 0.00 in0.0 mm 0.00 in0.0 mm
01:00 AM 44.7°F7.1°C 41.9°F5.5°C 90% Calm Calm -- 30.14 in1020.7 mb - 0.00 in0.0 mm 0.00 in0.0 mm
02:00 AM 44.3°F6.8°C 42.1°F5.6°C 92% Calm Calm 2.3 mph3.7 kmh 30.12 in1020.0 mb - 0.00 in0.0 mm 0.00 in0.0 mm
03:00 AM 44.5°F6.9°C 42.3°F5.7°C 92% Calm Calm -- 30.10 in1019.3 mb - 0.00 in0.0 mm 0.00 in0.0 mm
04:00 AM 43.7°F6.5°C 41.2°F5.1°C 91% Calm Calm -- 30.09 in1019.0 mb - 0.00 in0.0 mm 0.00 in0.0 mm
05:00 AM 43.4°F6.3°C 41.2°F5.1°C 92% Calm Calm -- 30.09 in1019.0 mb - 0.00 in0.0 mm 0.00 in0.0 mm
06:00 AM 44.7°F7.1°C 42.8°F6.0°C 93% Calm Calm -- 30.09 in1019.0 mb - 0.00 in0.0 mm 0.00 in0.0 mm
07:00 AM 48.5°F9.2°C 46.0°F7.8°C 91% 1.2 mph S1.9 kmh S 1.2 mph1.9 kmh 30.09 in1019.0 mb - 0.00 in0.0 mm 0.00 in0.0 mm
08:00 AM 51.5°F10.8°C 46.8°F8.2°C 84% 1.2 mph WNW1.9 kmh WNW 1.2 mph1.9 kmh 30.08 in1018.6 mb - 0.00 in0.0 mm 0.00 in0.0 mm
09:00 AM 56.0°F13.3°C 47.5°F8.6°C 73% 1.2 mph WSW1.9 kmh WSW 3.5 mph5.6 kmh 30.08 in1018.6 mb - 0.00 in0.0 mm 0.00 in0.0 mm
10:00 AM 59.8°F15.4°C 46.3°F7.9°C 61% 2.3 mph SW3.7 kmh SW 3.5 mph5.6 kmh 30.07 in1018.3 mb - 0.00 in0.0 mm 0.00 in0.0 mm
11:00 AM 61.2°F16.2°C 47.2°F8.4°C 60% 2.3 mph NW3.7 kmh NW 3.5 mph5.6 kmh 30.07 in1018.3 mb - 0.00 in0.0 mm 0.00 in0.0 mm
12:00 PM 60.6°F15.9°C 47.1°F8.4°C 61% 2.3 mph SW3.7 kmh SW 3.5 mph5.6 kmh 30.06 in1017.9 mb - 0.00 in0.0 mm 0.00 in0.0 mm
01:00 PM 60.7°F15.9°C 44.9°F7.2°C 56% 3.5 mph W5.6 kmh W 9.2 mph14.8 kmh 30.05 in1017.6 mb - 0.00 in0.0 mm 0.00 in0.0 mm
02:00 PM 63.8°F17.7°C 46.8°F8.2°C 54% 3.5 mph NW5.6 kmh NW 4.6 mph7.4 kmh 30.03 in1016.9 mb - 0.00 in0.0 mm 0.00 in0.0 mm
03:00 PM 64.2°F17.9°C 47.2°F8.4°C 54% 2.3 mph NE3.7 kmh NE 3.5 mph5.6 kmh 30.01 in1016.3 mb - 0.00 in0.0 mm 0.00 in0.0 mm
04:00 PM 59.9°F15.5°C 50.0°F10.0°C 70% 8.1 mph NW13.0 kmh NW 11.5 mph18.5 kmh 30.02 in1016.6 mb - 0.00 in0.0 mm 0.00 in0.0 mm
05:00 PM 56.7°F13.7°C 49.6°F9.8°C 77% 3.5 mph NW5.6 kmh NW 4.6 mph7.4 kmh 30.02 in1016.6 mb - 0.00 in0.0 mm 0.00 in0.0 mm
06:00 PM 55.9°F13.3°C 46.6°F8.1°C 71% 2.3 mph WNW3.7 kmh WNW 2.3 mph3.7 kmh 30.02 in1016.6 mb - 0.00 in0.0 mm 0.00 in0.0 mm
07:00 PM 55.0°F12.8°C 45.8°F7.7°C 71% 1.2 mph WNW1.9 kmh WNW 3.5 mph5.6 kmh 30.02 in1016.6 mb - 0.00 in0.0 mm 0.00 in0.0 mm
08:00 PM 54.2°F12.3°C 46.1°F7.8°C 74% Calm Calm 1.2 mph1.9 kmh 30.02 in1016.6 mb - 0.00 in0.0 mm 0.00 in0.0 mm
09:00 PM 53.7°F12.1°C 46.3°F7.9°C 76% 1.2 mph W1.9 kmh W 3.5 mph5.6 kmh 30.02 in1016.6 mb - 0.00 in0.0 mm 0.00 in0.0 mm
10:00 PM 53.3°F11.8°C 46.6°F8.1°C 78% 1.2 mph WSW1.9 kmh WSW 2.3 mph3.7 kmh 30.01 in1016.3 mb - 0.00 in0.0 mm 0.00 in0.0 mm
11:00 PM 52.3°F11.3°C 47.3°F8.5°C 83% Calm Calm 3.5 mph5.6 kmh 30.00 in1015.9 mb - 0.00 in0.0 mm 0.00 in0.0 mm